< < Back
Terminal Aerodrome Forecast


Current Version              Previous Versions:   1  2  3  4  5  6  7  8  9  

Terminal Aerodrome Forecast

616
FTUS42 KILM 290520
TAFFLO
TAF
KFLO 290520Z 2906/3006 16003KT P6SM SCT120
     FM291300 13007KT P6SM FEW040 SCT120
     FM300000 09003KT P6SM SCT120=



Latest METAR

070
SAUS70 KWBC 291200
MTRFLO
METAR KFLO 291153Z 06003KT 10SM CLR 21/18 A3022 RMK AO2 SLP231 T02110183
10211 20172 51014


USA.gov is the U.S. government's official web portal to all federal, state and local government web resources and services.